sensor_id;sensor_type;location;lat;lon;timestamp;P1;durP1;ratioP1;P2;durP2;ratioP2
8183;SDS011;4133;48.752;9.088;2023-08-01T00:02:24;1.63;;;1.17;;
8183;SDS011;4133;48.752;9.088;2023-08-01T00:04:50;1.47;;;1.30;;
8183;SDS011;4133;48.752;9.088;2023-08-01T00:07:16;1.63;;;1.53;;
8183;SDS011;4133;48.752;9.088;2023-08-01T00:09:41;1.40;;;1.30;;
8183;SDS011;4133;48.752;9.088;2023-08-01T00:12:07;1.75;;;1.50;;
8183;SDS011;4133;48.752;9.088;2023-08-01T00:14:35;1.53;;;1.37;;
8183;SDS011;4133;48.752;9.088;2023-08-01T00:17:01;1.37;;;1.20;;
8183;SDS011;4133;48.752;9.088;2023-08-01T00:19:27;2.25;;;1.42;;
8183;SDS011;4133;48.752;9.088;2023-08-01T00:21:53;2.53;;;1.37;;
8183;SDS011;4133;48.752;9.088;2023-08-01T00:24:19;1.63;;;1.30;;
8183;SDS011;4133;48.752;9.088;2023-08-01T00:26:45;1.40;;;1.30;;
8183;SDS011;4133;48.752;9.088;2023-08-01T00:29:12;1.80;;;1.50;;
8183;SDS011;4133;48.752;9.088;2023-08-01T00:31:38;1.83;;;1.27;;
8183;SDS011;4133;48.752;9.088;2023-08-01T00:34:04;1.15;;;1.10;;
8183;SDS011;4133;48.752;9.088;2023-08-01T00:36:30;1.57;;;1.30;;
8183;SDS011;4133;48.752;9.088;2023-08-01T00:38:56;1.58;;;1.30;;
8183;SDS011;4133;48.752;9.088;2023-08-01T00:41:22;1.43;;;1.33;;
8183;SDS011;4133;48.752;9.088;2023-08-01T00:43:48;2.05;;;1.23;;
8183;SDS011;4133;48.752;9.088;2023-08-01T00:46:14;1.38;;;1.25;;
8183;SDS011;4133;48.752;9.088;2023-08-01T00:48:40;1.50;;;1.40;;
8183;SDS011;4133;48.752;9.088;2023-08-01T00:51:06;1.40;;;1.30;;
8183;SDS011;4133;48.752;9.088;2023-08-01T00:53:34;3.60;;;1.50;;
8183;SDS011;4133;48.752;9.088;2023-08-01T00:56:01;1.63;;;1.40;;
8183;SDS011;4133;48.752;9.088;2023-08-01T00:58:27;1.63;;;1.53;;
8183;SDS011;4133;48.752;9.088;2023-08-01T01:00:53;1.27;;;1.17;;
8183;SDS011;4133;48.752;9.088;2023-08-01T01:03:20;1.77;;;1.40;;
8183;SDS011;4133;48.752;9.088;2023-08-01T01:05:53;1.05;;;0.88;;
8183;SDS011;4133;48.752;9.088;2023-08-01T01:08:19;2.13;;;1.40;;
8183;SDS011;4133;48.752;9.088;2023-08-01T01:10:50;1.15;;;1.05;;
8183;SDS011;4133;48.752;9.088;2023-08-01T01:13:16;1.93;;;1.50;;
8183;SDS011;4133;48.752;9.088;2023-08-01T01:15:42;1.23;;;1.13;;
8183;SDS011;4133;48.752;9.088;2023-08-01T01:18:08;1.53;;;1.20;;
8183;SDS011;4133;48.752;9.088;2023-08-01T01:20:35;1.80;;;1.30;;
8183;SDS011;4133;48.752;9.088;2023-08-01T01:23:01;2.50;;;1.20;;
8183;SDS011;4133;48.752;9.088;2023-08-01T01:25:28;1.38;;;1.20;;
8183;SDS011;4133;48.752;9.088;2023-08-01T01:27:55;1.60;;;1.40;;
8183;SDS011;4133;48.752;9.088;2023-08-01T01:30:22;1.63;;;1.27;;
8183;SDS011;4133;48.752;9.088;2023-08-01T01:32:48;1.50;;;1.40;;
8183;SDS011;4133;48.752;9.088;2023-08-01T01:35:14;0.93;;;0.93;;
8183;SDS011;4133;48.752;9.088;2023-08-01T01:37:40;2.07;;;1.40;;
8183;SDS011;4133;48.752;9.088;2023-08-01T01:40:06;1.30;;;1.20;;
8183;SDS011;4133;48.752;9.088;2023-08-01T01:42:33;2.20;;;1.60;;
8183;SDS011;4133;48.752;9.088;2023-08-01T01:44:59;2.17;;;1.30;;
8183;SDS011;4133;48.752;9.088;2023-08-01T01:47:25;3.27;;;1.20;;
8183;SDS011;4133;48.752;9.088;2023-08-01T01:49:50;1.53;;;1.37;;
8183;SDS011;4133;48.752;9.088;2023-08-01T01:52:16;1.63;;;1.30;;
8183;SDS011;4133;48.752;9.088;2023-08-01T01:54:42;1.83;;;1.23;;
8183;SDS011;4133;48.752;9.088;2023-08-01T01:57:08;2.17;;;1.30;;
8183;SDS011;4133;48.752;9.088;2023-08-01T01:59:34;1.23;;;1.05;;
8183;SDS011;4133;48.752;9.088;2023-08-01T02:02:00;1.95;;;1.67;;
8183;SDS011;4133;48.752;9.088;2023-08-01T02:04:29;1.37;;;1.20;;
8183;SDS011;4133;48.752;9.088;2023-08-01T02:06:54;1.50;;;1.40;;
8183;SDS011;4133;48.752;9.088;2023-08-01T02:09:21;1.30;;;1.20;;
8183;SDS011;4133;48.752;9.088;2023-08-01T02:11:51;1.60;;;1.40;;
8183;SDS011;4133;48.752;9.088;2023-08-01T02:14:17;1.50;;;1.20;;
8183;SDS011;4133;48.752;9.088;2023-08-01T02:16:43;1.40;;;1.30;;
8183;SDS011;4133;48.752;9.088;2023-08-01T02:19:09;1.40;;;1.30;;
8183;SDS011;4133;48.752;9.088;2023-08-01T02:21:35;1.30;;;1.20;;
8183;SDS011;4133;48.752;9.088;2023-08-01T02:24:00;1.85;;;1.48;;
8183;SDS011;4133;48.752;9.088;2023-08-01T02:26:28;1.77;;;1.17;;
8183;SDS011;4133;48.752;9.088;2023-08-01T02:28:54;1.67;;;1.37;;
8183;SDS011;4133;48.752;9.088;2023-08-01T02:31:20;1.40;;;1.30;;
8183;SDS011;4133;48.752;9.088;2023-08-01T02:33:46;1.50;;;1.40;;
8183;SDS011;4133;48.752;9.088;2023-08-01T02:36:12;3.17;;;1.50;;
8183;SDS011;4133;48.752;9.088;2023-08-01T02:38:38;2.37;;;1.27;;
8183;SDS011;4133;48.752;9.088;2023-08-01T02:41:04;1.60;;;1.50;;
8183;SDS011;4133;48.752;9.088;2023-08-01T02:43:30;2.92;;;1.00;;
8183;SDS011;4133;48.752;9.088;2023-08-01T02:45:56;1.30;;;1.20;;
8183;SDS011;4133;48.752;9.088;2023-08-01T02:48:24;1.88;;;1.30;;
8183;SDS011;4133;48.752;9.088;2023-08-01T02:50:50;1.40;;;1.30;;
8183;SDS011;4133;48.752;9.088;2023-08-01T02:53:16;1.92;;;1.42;;
8183;SDS011;4133;48.752;9.088;2023-08-01T02:55:43;1.57;;;1.47;;
8183;SDS011;4133;48.752;9.088;2023-08-01T02:58:11;1.50;;;1.40;;
8183;SDS011;4133;48.752;9.088;2023-08-01T03:00:37;1.23;;;1.13;;
8183;SDS011;4133;48.752;9.088;2023-08-01T03:03:04;1.37;;;1.27;;
8183;SDS011;4133;48.752;9.088;2023-08-01T03:05:30;1.23;;;1.13;;
8183;SDS011;4133;48.752;9.088;2023-08-01T03:07:56;2.27;;;1.40;;
8183;SDS011;4133;48.752;9.088;2023-08-01T03:13:26;1.07;;;1.07;;
8183;SDS011;4133;48.752;9.088;2023-08-01T03:15:52;1.40;;;1.30;;
8183;SDS011;4133;48.752;9.088;2023-08-01T03:18:18;4.13;;;1.60;;
8183;SDS011;4133;48.752;9.088;2023-08-01T03:20:44;1.52;;;1.38;;
8183;SDS011;4133;48.752;9.088;2023-08-01T03:23:10;1.40;;;1.30;;
8183;SDS011;4133;48.752;9.088;2023-08-01T03:25:36;2.03;;;1.30;;
8183;SDS011;4133;48.752;9.088;2023-08-01T03:28:02;1.42;;;1.27;;
8183;SDS011;4133;48.752;9.088;2023-08-01T03:30:28;1.40;;;1.30;;
8183;SDS011;4133;48.752;9.088;2023-08-01T03:32:54;3.17;;;1.57;;
8183;SDS011;4133;48.752;9.088;2023-08-01T03:35:20;2.60;;;1.70;;
8183;SDS011;4133;48.752;9.088;2023-08-01T03:37:46;1.23;;;1.13;;
8183;SDS011;4133;48.752;9.088;2023-08-01T03:40:12;1.38;;;1.27;;
8183;SDS011;4133;48.752;9.088;2023-08-01T03:42:38;1.33;;;1.23;;
8183;SDS011;4133;48.752;9.088;2023-08-01T03:45:05;1.23;;;1.10;;
8183;SDS011;4133;48.752;9.088;2023-08-01T03:47:31;1.57;;;1.37;;
8183;SDS011;4133;48.752;9.088;2023-08-01T03:49:58;1.57;;;1.10;;
8183;SDS011;4133;48.752;9.088;2023-08-01T03:52:24;1.15;;;1.05;;
8183;SDS011;4133;48.752;9.088;2023-08-01T03:54:53;2.00;;;1.70;;
8183;SDS011;4133;48.752;9.088;2023-08-01T03:57:19;1.52;;;1.13;;
8183;SDS011;4133;48.752;9.088;2023-08-01T03:59:45;1.33;;;1.23;;
8183;SDS011;4133;48.752;9.088;2023-08-01T04:02:12;1.37;;;1.20;;
8183;SDS011;4133;48.752;9.088;2023-08-01T04:04:38;1.40;;;1.00;;
8183;SDS011;4133;48.752;9.088;2023-08-01T04:07:04;1.10;;;0.98;;
8183;SDS011;4133;48.752;9.088;2023-08-01T04:09:30;1.42;;;1.30;;
8183;SDS011;4133;48.752;9.088;2023-08-01T04:11:56;1.20;;;1.10;;
8183;SDS011;4133;48.752;9.088;2023-08-01T04:14:22;1.65;;;1.35;;
8183;SDS011;4133;48.752;9.088;2023-08-01T04:16:48;1.27;;;1.05;;
8183;SDS011;4133;48.752;9.088;2023-08-01T04:19:14;2.15;;;1.20;;
8183;SDS011;4133;48.752;9.088;2023-08-01T04:21:40;1.70;;;0.98;;
8183;SDS011;4133;48.752;9.088;2023-08-01T04:24:06;3.58;;;1.40;;
8183;SDS011;4133;48.752;9.088;2023-08-01T04:26:32;2.00;;;1.25;;
8183;SDS011;4133;48.752;9.088;2023-08-01T04:28:58;1.92;;;1.45;;
8183;SDS011;4133;48.752;9.088;2023-08-01T04:31:24;1.30;;;1.10;;
8183;SDS011;4133;48.752;9.088;2023-08-01T04:33:50;1.60;;;1.20;;
8183;SDS011;4133;48.752;9.088;2023-08-01T04:36:16;2.70;;;1.57;;
8183;SDS011;4133;48.752;9.088;2023-08-01T04:38:42;2.13;;;1.47;;
8183;SDS011;4133;48.752;9.088;2023-08-01T04:41:08;1.57;;;1.20;;
8183;SDS011;4133;48.752;9.088;2023-08-01T04:43:34;1.50;;;1.40;;
8183;SDS011;4133;48.752;9.088;2023-08-01T04:46:00;1.03;;;0.93;;
8183;SDS011;4133;48.752;9.088;2023-08-01T04:48:26;2.05;;;1.00;;
8183;SDS011;4133;48.752;9.088;2023-08-01T04:50:52;2.50;;;1.20;;
8183;SDS011;4133;48.752;9.088;2023-08-01T04:53:18;1.35;;;1.10;;
8183;SDS011;4133;48.752;9.088;2023-08-01T04:55:44;1.53;;;1.10;;
8183;SDS011;4133;48.752;9.088;2023-08-01T04:58:10;1.33;;;1.10;;
8183;SDS011;4133;48.752;9.088;2023-08-01T05:00:37;1.00;;;1.00;;
8183;SDS011;4133;48.752;9.088;2023-08-01T05:03:03;0.88;;;0.88;;
8183;SDS011;4133;48.752;9.088;2023-08-01T05:05:29;1.52;;;1.15;;
8183;SDS011;4133;48.752;9.088;2023-08-01T05:07:55;1.30;;;1.20;;
8183;SDS011;4133;48.752;9.088;2023-08-01T05:10:31;1.50;;;1.30;;
8183;SDS011;4133;48.752;9.088;2023-08-01T05:12:57;1.37;;;1.20;;
8183;SDS011;4133;48.752;9.088;2023-08-01T05:15:23;2.30;;;1.27;;
8183;SDS011;4133;48.752;9.088;2023-08-01T05:17:49;1.77;;;1.30;;
8183;SDS011;4133;48.752;9.088;2023-08-01T05:20:15;1.30;;;1.20;;
8183;SDS011;4133;48.752;9.088;2023-08-01T05:22:41;1.50;;;1.20;;
8183;SDS011;4133;48.752;9.088;2023-08-01T05:25:07;3.47;;;1.58;;
8183;SDS011;4133;48.752;9.088;2023-08-01T05:27:33;1.20;;;1.10;;
8183;SDS011;4133;48.752;9.088;2023-08-01T05:29:59;1.20;;;1.10;;
8183;SDS011;4133;48.752;9.088;2023-08-01T05:32:25;2.17;;;1.80;;
8183;SDS011;4133;48.752;9.088;2023-08-01T05:34:51;1.30;;;1.20;;
8183;SDS011;4133;48.752;9.088;2023-08-01T05:37:17;1.23;;;1.13;;
8183;SDS011;4133;48.752;9.088;2023-08-01T05:39:43;2.83;;;1.37;;
8183;SDS011;4133;48.752;9.088;2023-08-01T05:42:09;2.63;;;1.60;;
8183;SDS011;4133;48.752;9.088;2023-08-01T05:44:35;2.47;;;1.30;;
8183;SDS011;4133;48.752;9.088;2023-08-01T05:47:01;1.52;;;1.38;;
8183;SDS011;4133;48.752;9.088;2023-08-01T05:49:27;1.40;;;1.30;;
8183;SDS011;4133;48.752;9.088;2023-08-01T05:51:54;1.55;;;1.45;;
8183;SDS011;4133;48.752;9.088;2023-08-01T05:54:21;1.70;;;1.60;;
8183;SDS011;4133;48.752;9.088;2023-08-01T05:56:47;1.95;;;1.60;;
8183;SDS011;4133;48.752;9.088;2023-08-01T05:59:13;2.70;;;1.50;;
8183;SDS011;4133;48.752;9.088;2023-08-01T06:01:38;1.38;;;1.27;;
8183;SDS011;4133;48.752;9.088;2023-08-01T06:04:05;2.05;;;1.40;;
8183;SDS011;4133;48.752;9.088;2023-08-01T06:06:30;2.50;;;1.50;;
8183;SDS011;4133;48.752;9.088;2023-08-01T06:08:56;2.15;;;1.52;;
8183;SDS011;4133;48.752;9.088;2023-08-01T06:14:04;1.30;;;1.20;;
8183;SDS011;4133;48.752;9.088;2023-08-01T06:16:30;2.53;;;1.45;;
8183;SDS011;4133;48.752;9.088;2023-08-01T06:18:56;1.27;;;1.17;;
8183;SDS011;4133;48.752;9.088;2023-08-01T06:21:22;1.40;;;1.30;;
8183;SDS011;4133;48.752;9.088;2023-08-01T06:23:47;2.65;;;1.30;;
8183;SDS011;4133;48.752;9.088;2023-08-01T06:26:13;2.30;;;1.40;;
8183;SDS011;4133;48.752;9.088;2023-08-01T06:28:42;1.80;;;1.17;;
8183;SDS011;4133;48.752;9.088;2023-08-01T06:31:08;2.73;;;1.40;;
8183;SDS011;4133;48.752;9.088;2023-08-01T06:33:34;1.98;;;1.48;;
8183;SDS011;4133;48.752;9.088;2023-08-01T06:36:00;1.42;;;1.33;;
8183;SDS011;4133;48.752;9.088;2023-08-01T06:38:26;2.50;;;1.53;;
8183;SDS011;4133;48.752;9.088;2023-08-01T06:40:52;1.50;;;1.40;;
8183;SDS011;4133;48.752;9.088;2023-08-01T06:43:18;1.97;;;1.63;;
8183;SDS011;4133;48.752;9.088;2023-08-01T06:45:44;1.92;;;1.80;;
8183;SDS011;4133;48.752;9.088;2023-08-01T06:48:10;3.53;;;2.03;;
8183;SDS011;4133;48.752;9.088;2023-08-01T06:50:36;3.13;;;1.53;;
8183;SDS011;4133;48.752;9.088;2023-08-01T06:53:02;4.83;;;1.40;;
8183;SDS011;4133;48.752;9.088;2023-08-01T06:55:28;2.53;;;1.80;;
8183;SDS011;4133;48.752;9.088;2023-08-01T06:57:54;1.90;;;1.60;;
8183;SDS011;4133;48.752;9.088;2023-08-01T07:00:20;7.40;;;1.97;;
8183;SDS011;4133;48.752;9.088;2023-08-01T07:02:46;3.10;;;2.33;;
8183;SDS011;4133;48.752;9.088;2023-08-01T07:05:12;2.10;;;1.90;;
8183;SDS011;4133;48.752;9.088;2023-08-01T07:07:38;3.30;;;2.10;;
8183;SDS011;4133;48.752;9.088;2023-08-01T07:12:34;2.37;;;2.00;;
8183;SDS011;4133;48.752;9.088;2023-08-01T07:15:01;3.43;;;2.17;;
8183;SDS011;4133;48.752;9.088;2023-08-01T07:17:27;3.13;;;2.43;;
8183;SDS011;4133;48.752;9.088;2023-08-01T07:19:53;2.57;;;2.20;;
8183;SDS011;4133;48.752;9.088;2023-08-01T07:22:19;2.63;;;2.07;;
8183;SDS011;4133;48.752;9.088;2023-08-01T07:24:45;2.40;;;1.70;;
8183;SDS011;4133;48.752;9.088;2023-08-01T07:27:11;2.03;;;1.77;;
8183;SDS011;4133;48.752;9.088;2023-08-01T07:29:37;3.55;;;2.30;;
8183;SDS011;4133;48.752;9.088;2023-08-01T07:32:04;3.50;;;1.90;;
8183;SDS011;4133;48.752;9.088;2023-08-01T07:34:30;2.03;;;1.80;;
8183;SDS011;4133;48.752;9.088;2023-08-01T07:36:56;1.87;;;1.67;;
8183;SDS011;4133;48.752;9.088;2023-08-01T07:39:22;4.17;;;2.10;;
8183;SDS011;4133;48.752;9.088;2023-08-01T07:41:48;1.70;;;1.60;;
8183;SDS011;4133;48.752;9.088;2023-08-01T07:44:14;2.00;;;1.67;;
8183;SDS011;4133;48.752;9.088;2023-08-01T07:46:40;1.67;;;1.40;;
8183;SDS011;4133;48.752;9.088;2023-08-01T07:49:06;1.50;;;1.40;;
8183;SDS011;4133;48.752;9.088;2023-08-01T07:51:32;1.43;;;1.30;;
8183;SDS011;4133;48.752;9.088;2023-08-01T07:53:58;1.60;;;1.40;;
8183;SDS011;4133;48.752;9.088;2023-08-01T07:56:24;1.73;;;1.40;;
8183;SDS011;4133;48.752;9.088;2023-08-01T07:58:50;4.20;;;1.00;;
8183;SDS011;4133;48.752;9.088;2023-08-01T08:01:16;1.40;;;1.27;;
8183;SDS011;4133;48.752;9.088;2023-08-01T08:03:42;1.20;;;1.10;;
8183;SDS011;4133;48.752;9.088;2023-08-01T08:06:08;1.20;;;1.10;;
8183;SDS011;4133;48.752;9.088;2023-08-01T08:08:34;1.40;;;1.17;;
8183;SDS011;4133;48.752;9.088;2023-08-01T08:11:17;1.43;;;0.90;;
8183;SDS011;4133;48.752;9.088;2023-08-01T08:13:43;1.63;;;1.20;;
8183;SDS011;4133;48.752;9.088;2023-08-01T08:16:09;1.43;;;1.27;;
8183;SDS011;4133;48.752;9.088;2023-08-01T08:18:35;1.47;;;1.37;;
8183;SDS011;4133;48.752;9.088;2023-08-01T08:21:01;1.30;;;1.17;;
8183;SDS011;4133;48.752;9.088;2023-08-01T08:23:27;1.47;;;1.10;;
8183;SDS011;4133;48.752;9.088;2023-08-01T08:25:53;3.53;;;0.70;;
8183;SDS011;4133;48.752;9.088;2023-08-01T08:28:27;1.13;;;1.03;;
8183;SDS011;4133;48.752;9.088;2023-08-01T08:30:53;2.47;;;1.00;;
8183;SDS011;4133;48.752;9.088;2023-08-01T08:33:20;1.03;;;0.93;;
8183;SDS011;4133;48.752;9.088;2023-08-01T08:35:49;1.00;;;1.00;;
8183;SDS011;4133;48.752;9.088;2023-08-01T08:38:16;1.03;;;1.00;;
8183;SDS011;4133;48.752;9.088;2023-08-01T08:40:43;1.63;;;1.10;;
8183;SDS011;4133;48.752;9.088;2023-08-01T08:43:14;1.70;;;1.03;;
8183;SDS011;4133;48.752;9.088;2023-08-01T08:45:41;1.50;;;1.23;;
8183;SDS011;4133;48.752;9.088;2023-08-01T08:48:09;1.37;;;1.10;;
8183;SDS011;4133;48.752;9.088;2023-08-01T08:50:37;1.00;;;1.00;;
8183;SDS011;4133;48.752;9.088;2023-08-01T08:53:03;1.30;;;1.03;;
8183;SDS011;4133;48.752;9.088;2023-08-01T08:55:29;1.17;;;1.07;;
8183;SDS011;4133;48.752;9.088;2023-08-01T08:57:56;1.10;;;0.95;;
8183;SDS011;4133;48.752;9.088;2023-08-01T09:00:22;1.77;;;1.10;;
8183;SDS011;4133;48.752;9.088;2023-08-01T09:02:49;0.93;;;0.83;;
8183;SDS011;4133;48.752;9.088;2023-08-01T09:05:15;1.40;;;1.20;;
8183;SDS011;4133;48.752;9.088;2023-08-01T09:07:42;1.03;;;1.00;;
8183;SDS011;4133;48.752;9.088;2023-08-01T09:10:08;1.33;;;0.97;;
8183;SDS011;4133;48.752;9.088;2023-08-01T09:12:34;0.90;;;0.90;;
8183;SDS011;4133;48.752;9.088;2023-08-01T09:15:00;1.17;;;0.87;;
8183;SDS011;4133;48.752;9.088;2023-08-01T09:17:26;1.07;;;0.83;;
8183;SDS011;4133;48.752;9.088;2023-08-01T09:20:02;1.00;;;1.00;;
8183;SDS011;4133;48.752;9.088;2023-08-01T09:22:29;2.05;;;1.20;;
8183;SDS011;4133;48.752;9.088;2023-08-01T09:24:56;0.70;;;0.70;;
8183;SDS011;4133;48.752;9.088;2023-08-01T09:27:22;0.80;;;0.80;;
8183;SDS011;4133;48.752;9.088;2023-08-01T09:29:48;1.20;;;0.80;;
8183;SDS011;4133;48.752;9.088;2023-08-01T09:32:14;0.95;;;0.85;;
8183;SDS011;4133;48.752;9.088;2023-08-01T09:34:41;0.60;;;0.60;;
8183;SDS011;4133;48.752;9.088;2023-08-01T09:37:11;0.80;;;0.80;;
8183;SDS011;4133;48.752;9.088;2023-08-01T09:39:37;0.85;;;0.80;;
8183;SDS011;4133;48.752;9.088;2023-08-01T09:42:03;0.50;;;0.50;;
8183;SDS011;4133;48.752;9.088;2023-08-01T09:44:29;0.50;;;0.50;;
8183;SDS011;4133;48.752;9.088;2023-08-01T09:46:59;0.60;;;0.60;;
8183;SDS011;4133;48.752;9.088;2023-08-01T09:49:26;0.50;;;0.50;;
8183;SDS011;4133;48.752;9.088;2023-08-01T09:51:52;0.32;;;0.32;;
8183;SDS011;4133;48.752;9.088;2023-08-01T09:54:19;0.30;;;0.30;;
8183;SDS011;4133;48.752;9.088;2023-08-01T09:56:46;0.52;;;0.30;;
8183;SDS011;4133;48.752;9.088;2023-08-01T09:59:13;0.20;;;0.20;;
8183;SDS011;4133;48.752;9.088;2023-08-01T10:01:44;0.30;;;0.23;;
8183;SDS011;4133;48.752;9.088;2023-08-01T10:04:10;0.20;;;0.20;;
8183;SDS011;4133;48.752;9.088;2023-08-01T10:06:37;0.17;;;0.17;;
8183;SDS011;4133;48.752;9.088;2023-08-01T10:09:04;0.50;;;0.50;;
8183;SDS011;4133;48.752;9.088;2023-08-01T10:11:30;0.37;;;0.37;;
8183;SDS011;4133;48.752;9.088;2023-08-01T10:14:00;0.30;;;0.30;;
8183;SDS011;4133;48.752;9.088;2023-08-01T10:16:39;2.57;;;0.30;;
8183;SDS011;4133;48.752;9.088;2023-08-01T10:19:07;0.40;;;0.40;;
8183;SDS011;4133;48.752;9.088;2023-08-01T10:21:33;0.20;;;0.20;;
8183;SDS011;4133;48.752;9.088;2023-08-01T10:23:59;0.30;;;0.30;;
8183;SDS011;4133;48.752;9.088;2023-08-01T10:26:26;1.00;;;0.35;;
8183;SDS011;4133;48.752;9.088;2023-08-01T10:28:52;0.30;;;0.30;;
8183;SDS011;4133;48.752;9.088;2023-08-01T10:31:19;0.20;;;0.20;;
8183;SDS011;4133;48.752;9.088;2023-08-01T10:33:46;0.43;;;0.40;;
8183;SDS011;4133;48.752;9.088;2023-08-01T10:38:52;0.20;;;0.20;;
8183;SDS011;4133;48.752;9.088;2023-08-01T10:41:39;0.30;;;0.30;;
8183;SDS011;4133;48.752;9.088;2023-08-01T10:44:05;0.40;;;0.40;;
8183;SDS011;4133;48.752;9.088;2023-08-01T10:46:52;0.30;;;0.30;;
8183;SDS011;4133;48.752;9.088;2023-08-01T10:49:19;0.52;;;0.30;;
8183;SDS011;4133;48.752;9.088;2023-08-01T10:51:46;0.20;;;0.20;;
8183;SDS011;4133;48.752;9.088;2023-08-01T10:54:23;0.20;;;0.20;;
8183;SDS011;4133;48.752;9.088;2023-08-01T10:56:50;0.30;;;0.30;;
8183;SDS011;4133;48.752;9.088;2023-08-01T10:59:16;0.30;;;0.30;;
8183;SDS011;4133;48.752;9.088;2023-08-01T11:01:43;0.30;;;0.30;;
8183;SDS011;4133;48.752;9.088;2023-08-01T11:06:48;0.30;;;0.30;;
8183;SDS011;4133;48.752;9.088;2023-08-01T11:09:15;0.40;;;0.40;;
8183;SDS011;4133;48.752;9.088;2023-08-01T11:11:42;0.40;;;0.40;;
8183;SDS011;4133;48.752;9.088;2023-08-01T11:14:08;0.38;;;0.38;;
8183;SDS011;4133;48.752;9.088;2023-08-01T11:16:34;0.35;;;0.35;;
8183;SDS011;4133;48.752;9.088;2023-08-01T11:19:02;0.30;;;0.30;;
8183;SDS011;4133;48.752;9.088;2023-08-01T11:21:28;0.40;;;0.40;;
8183;SDS011;4133;48.752;9.088;2023-08-01T11:23:54;0.40;;;0.22;;
8183;SDS011;4133;48.752;9.088;2023-08-01T11:26:22;0.40;;;0.40;;
8183;SDS011;4133;48.752;9.088;2023-08-01T11:28:48;0.35;;;0.35;;
8183;SDS011;4133;48.752;9.088;2023-08-01T11:31:14;0.52;;;0.52;;
8183;SDS011;4133;48.752;9.088;2023-08-01T11:33:40;0.60;;;0.60;;
8183;SDS011;4133;48.752;9.088;2023-08-01T11:36:06;1.10;;;0.50;;
8183;SDS011;4133;48.752;9.088;2023-08-01T11:38:33;0.43;;;0.43;;
8183;SDS011;4133;48.752;9.088;2023-08-01T11:41:00;0.60;;;0.50;;
8183;SDS011;4133;48.752;9.088;2023-08-01T11:43:37;0.32;;;0.32;;
8183;SDS011;4133;48.752;9.088;2023-08-01T11:46:03;0.40;;;0.40;;
8183;SDS011;4133;48.752;9.088;2023-08-01T11:48:29;0.50;;;0.43;;
8183;SDS011;4133;48.752;9.088;2023-08-01T11:50:59;0.57;;;0.57;;
8183;SDS011;4133;48.752;9.088;2023-08-01T11:53:25;0.43;;;0.43;;
8183;SDS011;4133;48.752;9.088;2023-08-01T11:55:51;0.65;;;0.65;;
8183;SDS011;4133;48.752;9.088;2023-08-01T11:58:27;0.40;;;0.40;;
8183;SDS011;4133;48.752;9.088;2023-08-01T12:01:06;0.60;;;0.60;;
8183;SDS011;4133;48.752;9.088;2023-08-01T12:03:41;0.35;;;0.35;;
8183;SDS011;4133;48.752;9.088;2023-08-01T12:09:12;0.60;;;0.55;;
8183;SDS011;4133;48.752;9.088;2023-08-01T12:11:38;0.60;;;0.60;;
8183;SDS011;4133;48.752;9.088;2023-08-01T12:14:06;0.60;;;0.60;;
8183;SDS011;4133;48.752;9.088;2023-08-01T12:16:34;0.80;;;0.80;;
8183;SDS011;4133;48.752;9.088;2023-08-01T12:19:00;0.68;;;0.50;;
8183;SDS011;4133;48.752;9.088;2023-08-01T12:21:26;0.50;;;0.50;;
8183;SDS011;4133;48.752;9.088;2023-08-01T12:23:52;0.38;;;0.38;;
8183;SDS011;4133;48.752;9.088;2023-08-01T12:26:18;0.40;;;0.40;;
8183;SDS011;4133;48.752;9.088;2023-08-01T12:28:44;0.50;;;0.50;;
8183;SDS011;4133;48.752;9.088;2023-08-01T12:31:10;0.57;;;0.50;;
8183;SDS011;4133;48.752;9.088;2023-08-01T12:33:36;0.45;;;0.43;;
8183;SDS011;4133;48.752;9.088;2023-08-01T12:39:06;0.50;;;0.50;;
8183;SDS011;4133;48.752;9.088;2023-08-01T12:41:35;0.50;;;0.50;;
8183;SDS011;4133;48.752;9.088;2023-08-01T12:44:01;0.70;;;0.70;;
8183;SDS011;4133;48.752;9.088;2023-08-01T12:46:28;0.77;;;0.40;;
8183;SDS011;4133;48.752;9.088;2023-08-01T12:48:54;0.50;;;0.50;;
8183;SDS011;4133;48.752;9.088;2023-08-01T12:51:20;0.40;;;0.40;;
8183;SDS011;4133;48.752;9.088;2023-08-01T12:53:45;0.50;;;0.50;;
8183;SDS011;4133;48.752;9.088;2023-08-01T12:59:01;0.45;;;0.45;;
8183;SDS011;4133;48.752;9.088;2023-08-01T13:01:28;0.50;;;0.50;;
8183;SDS011;4133;48.752;9.088;2023-08-01T13:03:54;0.52;;;0.35;;
8183;SDS011;4133;48.752;9.088;2023-08-01T13:06:20;0.85;;;0.52;;
8183;SDS011;4133;48.752;9.088;2023-08-01T13:08:45;0.50;;;0.50;;
8183;SDS011;4133;48.752;9.088;2023-08-01T13:11:12;0.40;;;0.40;;
8183;SDS011;4133;48.752;9.088;2023-08-01T13:13:39;0.43;;;0.40;;
8183;SDS011;4133;48.752;9.088;2023-08-01T13:16:05;0.50;;;0.50;;
8183;SDS011;4133;48.752;9.088;2023-08-01T13:18:31;0.60;;;0.60;;
8183;SDS011;4133;48.752;9.088;2023-08-01T13:20:57;0.63;;;0.63;;
8183;SDS011;4133;48.752;9.088;2023-08-01T13:23:24;2.08;;;0.70;;
8183;SDS011;4133;48.752;9.088;2023-08-01T13:25:50;0.40;;;0.40;;
8183;SDS011;4133;48.752;9.088;2023-08-01T13:28:16;2.10;;;0.47;;
8183;SDS011;4133;48.752;9.088;2023-08-01T13:30:42;0.40;;;0.40;;
8183;SDS011;4133;48.752;9.088;2023-08-01T13:33:08;1.17;;;0.60;;
8183;SDS011;4133;48.752;9.088;2023-08-01T13:35:34;0.82;;;0.60;;
8183;SDS011;4133;48.752;9.088;2023-08-01T13:38:00;0.65;;;0.55;;
8183;SDS011;4133;48.752;9.088;2023-08-01T13:40:28;0.55;;;0.55;;
8183;SDS011;4133;48.752;9.088;2023-08-01T13:42:54;0.60;;;0.50;;
8183;SDS011;4133;48.752;9.088;2023-08-01T13:45:20;0.65;;;0.65;;
8183;SDS011;4133;48.752;9.088;2023-08-01T13:47:46;0.88;;;0.80;;
8183;SDS011;4133;48.752;9.088;2023-08-01T13:50:12;0.65;;;0.60;;
8183;SDS011;4133;48.752;9.088;2023-08-01T13:52:38;0.63;;;0.63;;
8183;SDS011;4133;48.752;9.088;2023-08-01T13:55:04;0.70;;;0.70;;
8183;SDS011;4133;48.752;9.088;2023-08-01T13:57:32;0.63;;;0.63;;
8183;SDS011;4133;48.752;9.088;2023-08-01T13:59:58;0.68;;;0.60;;
8183;SDS011;4133;48.752;9.088;2023-08-01T14:02:24;0.75;;;0.75;;
8183;SDS011;4133;48.752;9.088;2023-08-01T14:04:53;0.70;;;0.70;;
8183;SDS011;4133;48.752;9.088;2023-08-01T14:07:19;1.15;;;0.63;;
8183;SDS011;4133;48.752;9.088;2023-08-01T14:09:45;0.57;;;0.52;;
8183;SDS011;4133;48.752;9.088;2023-08-01T14:12:11;0.60;;;0.60;;
8183;SDS011;4133;48.752;9.088;2023-08-01T14:14:37;0.40;;;0.40;;
8183;SDS011;4133;48.752;9.088;2023-08-01T14:17:03;0.55;;;0.55;;
8183;SDS011;4133;48.752;9.088;2023-08-01T14:19:29;0.60;;;0.60;;
8183;SDS011;4133;48.752;9.088;2023-08-01T14:24:26;0.45;;;0.45;;
8183;SDS011;4133;48.752;9.088;2023-08-01T14:26:52;1.33;;;0.70;;
8183;SDS011;4133;48.752;9.088;2023-08-01T14:29:18;0.52;;;0.52;;
8183;SDS011;4133;48.752;9.088;2023-08-01T14:31:47;1.02;;;0.70;;
8183;SDS011;4133;48.752;9.088;2023-08-01T14:34:13;0.80;;;0.80;;
8183;SDS011;4133;48.752;9.088;2023-08-01T14:36:39;0.55;;;0.55;;
8183;SDS011;4133;48.752;9.088;2023-08-01T14:39:05;1.05;;;0.65;;
8183;SDS011;4133;48.752;9.088;2023-08-01T14:41:31;0.40;;;0.40;;
8183;SDS011;4133;48.752;9.088;2023-08-01T14:43:58;0.60;;;0.60;;
8183;SDS011;4133;48.752;9.088;2023-08-01T14:46:24;0.50;;;0.50;;
8183;SDS011;4133;48.752;9.088;2023-08-01T14:48:50;0.40;;;0.40;;
8183;SDS011;4133;48.752;9.088;2023-08-01T14:51:16;1.67;;;0.73;;
8183;SDS011;4133;48.752;9.088;2023-08-01T14:53:42;0.52;;;0.52;;
8183;SDS011;4133;48.752;9.088;2023-08-01T14:56:08;0.60;;;0.60;;
8183;SDS011;4133;48.752;9.088;2023-08-01T14:58:36;0.60;;;0.60;;
8183;SDS011;4133;48.752;9.088;2023-08-01T15:01:04;0.70;;;0.70;;
8183;SDS011;4133;48.752;9.088;2023-08-01T15:03:31;0.68;;;0.68;;
8183;SDS011;4133;48.752;9.088;2023-08-01T15:06:04;1.67;;;0.70;;
8183;SDS011;4133;48.752;9.088;2023-08-01T15:08:30;0.43;;;0.43;;
8183;SDS011;4133;48.752;9.088;2023-08-01T15:10:56;1.23;;;0.70;;
8183;SDS011;4133;48.752;9.088;2023-08-01T15:13:22;0.60;;;0.60;;
8183;SDS011;4133;48.752;9.088;2023-08-01T15:15:48;0.55;;;0.55;;
8183;SDS011;4133;48.752;9.088;2023-08-01T15:18:14;0.60;;;0.60;;
8183;SDS011;4133;48.752;9.088;2023-08-01T15:20:55;0.50;;;0.50;;
8183;SDS011;4133;48.752;9.088;2023-08-01T15:23:21;0.77;;;0.75;;
8183;SDS011;4133;48.752;9.088;2023-08-01T15:25:54;1.00;;;0.70;;
8183;SDS011;4133;48.752;9.088;2023-08-01T15:28:20;0.77;;;0.68;;
8183;SDS011;4133;48.752;9.088;2023-08-01T15:30:46;0.60;;;0.60;;
8183;SDS011;4133;48.752;9.088;2023-08-01T15:33:13;0.50;;;0.50;;
8183;SDS011;4133;48.752;9.088;2023-08-01T15:35:40;0.50;;;0.50;;
8183;SDS011;4133;48.752;9.088;2023-08-01T15:38:06;0.50;;;0.50;;